sensor_id;sensor_type;location;lat;lon;timestamp;P1;durP1;ratioP1;P2;durP2;ratioP2
6292;SDS011;3179;54.350;10.102;2022-08-14T00:01:12;2.83;;;2.23;;
6292;SDS011;3179;54.350;10.102;2022-08-14T00:03:39;4.57;;;1.77;;
6292;SDS011;3179;54.350;10.102;2022-08-14T00:06:06;2.20;;;2.10;;
6292;SDS011;3179;54.350;10.102;2022-08-14T00:08:34;2.27;;;2.17;;
6292;SDS011;3179;54.350;10.102;2022-08-14T00:11:00;2.50;;;1.80;;
6292;SDS011;3179;54.350;10.102;2022-08-14T00:13:27;2.80;;;2.00;;
6292;SDS011;3179;54.350;10.102;2022-08-14T00:15:55;2.23;;;2.03;;
6292;SDS011;3179;54.350;10.102;2022-08-14T00:18:25;3.40;;;2.10;;
6292;SDS011;3179;54.350;10.102;2022-08-14T00:20:53;2.00;;;1.90;;
6292;SDS011;3179;54.350;10.102;2022-08-14T00:23:20;1.67;;;1.57;;
6292;SDS011;3179;54.350;10.102;2022-08-14T00:25:48;2.63;;;2.30;;
6292;SDS011;3179;54.350;10.102;2022-08-14T00:28:16;2.77;;;1.80;;
6292;SDS011;3179;54.350;10.102;2022-08-14T00:30:46;2.60;;;2.40;;
6292;SDS011;3179;54.350;10.102;2022-08-14T00:33:15;1.90;;;1.80;;
6292;SDS011;3179;54.350;10.102;2022-08-14T00:35:44;3.13;;;2.00;;
6292;SDS011;3179;54.350;10.102;2022-08-14T00:38:11;2.63;;;2.20;;
6292;SDS011;3179;54.350;10.102;2022-08-14T00:40:37;2.67;;;2.10;;
6292;SDS011;3179;54.350;10.102;2022-08-14T00:43:04;2.50;;;2.30;;
6292;SDS011;3179;54.350;10.102;2022-08-14T00:45:31;2.33;;;2.13;;
6292;SDS011;3179;54.350;10.102;2022-08-14T00:47:59;2.10;;;1.97;;
6292;SDS011;3179;54.350;10.102;2022-08-14T00:50:26;2.03;;;1.73;;
6292;SDS011;3179;54.350;10.102;2022-08-14T00:52:56;2.10;;;2.00;;
6292;SDS011;3179;54.350;10.102;2022-08-14T00:55:25;3.27;;;2.10;;
6292;SDS011;3179;54.350;10.102;2022-08-14T00:57:53;1.97;;;1.80;;
6292;SDS011;3179;54.350;10.102;2022-08-14T01:00:34;1.70;;;1.60;;
6292;SDS011;3179;54.350;10.102;2022-08-14T01:03:01;1.80;;;1.70;;
6292;SDS011;3179;54.350;10.102;2022-08-14T01:05:29;1.50;;;1.40;;
6292;SDS011;3179;54.350;10.102;2022-08-14T01:07:57;2.57;;;2.13;;
6292;SDS011;3179;54.350;10.102;2022-08-14T01:10:25;4.33;;;2.10;;
6292;SDS011;3179;54.350;10.102;2022-08-14T01:13:13;4.27;;;2.33;;
6292;SDS011;3179;54.350;10.102;2022-08-14T01:15:41;2.47;;;2.23;;
6292;SDS011;3179;54.350;10.102;2022-08-14T01:18:08;2.13;;;1.93;;
6292;SDS011;3179;54.350;10.102;2022-08-14T01:20:53;2.10;;;1.90;;
6292;SDS011;3179;54.350;10.102;2022-08-14T01:23:34;2.33;;;1.87;;
6292;SDS011;3179;54.350;10.102;2022-08-14T01:26:04;2.50;;;2.30;;
6292;SDS011;3179;54.350;10.102;2022-08-14T01:28:32;2.30;;;2.20;;
6292;SDS011;3179;54.350;10.102;2022-08-14T01:31:02;2.30;;;2.00;;
6292;SDS011;3179;54.350;10.102;2022-08-14T01:33:33;2.70;;;2.10;;
6292;SDS011;3179;54.350;10.102;2022-08-14T01:36:05;3.00;;;2.10;;
6292;SDS011;3179;54.350;10.102;2022-08-14T01:38:35;3.20;;;2.20;;
6292;SDS011;3179;54.350;10.102;2022-08-14T01:41:04;3.17;;;2.20;;
6292;SDS011;3179;54.350;10.102;2022-08-14T01:43:32;2.10;;;2.00;;
6292;SDS011;3179;54.350;10.102;2022-08-14T01:46:08;3.67;;;2.10;;
6292;SDS011;3179;54.350;10.102;2022-08-14T01:48:36;3.03;;;2.07;;
6292;SDS011;3179;54.350;10.102;2022-08-14T01:51:08;2.60;;;2.40;;
6292;SDS011;3179;54.350;10.102;2022-08-14T01:53:37;2.43;;;2.23;;
6292;SDS011;3179;54.350;10.102;2022-08-14T01:56:05;2.17;;;2.07;;
6292;SDS011;3179;54.350;10.102;2022-08-14T01:58:33;2.53;;;2.33;;
6292;SDS011;3179;54.350;10.102;2022-08-14T02:01:00;2.57;;;2.20;;
6292;SDS011;3179;54.350;10.102;2022-08-14T02:03:28;2.43;;;2.07;;
6292;SDS011;3179;54.350;10.102;2022-08-14T02:05:56;2.00;;;1.90;;
6292;SDS011;3179;54.350;10.102;2022-08-14T02:08:24;2.27;;;2.07;;
6292;SDS011;3179;54.350;10.102;2022-08-14T02:10:55;2.37;;;1.80;;
6292;SDS011;3179;54.350;10.102;2022-08-14T02:13:43;2.20;;;2.00;;
6292;SDS011;3179;54.350;10.102;2022-08-14T02:16:11;1.93;;;1.83;;
6292;SDS011;3179;54.350;10.102;2022-08-14T02:18:40;2.13;;;1.93;;
6292;SDS011;3179;54.350;10.102;2022-08-14T02:21:07;2.20;;;2.00;;
6292;SDS011;3179;54.350;10.102;2022-08-14T02:23:36;2.37;;;2.17;;
6292;SDS011;3179;54.350;10.102;2022-08-14T02:26:13;1.97;;;1.87;;
6292;SDS011;3179;54.350;10.102;2022-08-14T02:28:42;2.03;;;1.93;;
6292;SDS011;3179;54.350;10.102;2022-08-14T02:31:10;1.80;;;1.70;;
6292;SDS011;3179;54.350;10.102;2022-08-14T02:33:37;1.50;;;1.50;;
6292;SDS011;3179;54.350;10.102;2022-08-14T02:36:06;3.43;;;2.00;;
6292;SDS011;3179;54.350;10.102;2022-08-14T02:38:34;1.80;;;1.70;;
6292;SDS011;3179;54.350;10.102;2022-08-14T02:41:01;2.07;;;1.87;;
6292;SDS011;3179;54.350;10.102;2022-08-14T02:43:30;2.90;;;2.33;;
6292;SDS011;3179;54.350;10.102;2022-08-14T02:45:57;1.90;;;1.80;;
6292;SDS011;3179;54.350;10.102;2022-08-14T02:48:25;2.37;;;1.73;;
6292;SDS011;3179;54.350;10.102;2022-08-14T02:50:56;3.33;;;1.50;;
6292;SDS011;3179;54.350;10.102;2022-08-14T02:53:24;2.33;;;2.13;;
6292;SDS011;3179;54.350;10.102;2022-08-14T02:55:51;2.10;;;1.87;;
6292;SDS011;3179;54.350;10.102;2022-08-14T02:58:18;1.63;;;1.53;;
6292;SDS011;3179;54.350;10.102;2022-08-14T03:00:49;2.00;;;1.80;;
6292;SDS011;3179;54.350;10.102;2022-08-14T03:03:16;1.80;;;1.70;;
6292;SDS011;3179;54.350;10.102;2022-08-14T03:05:44;2.10;;;1.90;;
6292;SDS011;3179;54.350;10.102;2022-08-14T03:08:11;2.77;;;1.70;;
6292;SDS011;3179;54.350;10.102;2022-08-14T03:10:39;1.80;;;1.70;;
6292;SDS011;3179;54.350;10.102;2022-08-14T03:13:06;2.33;;;1.57;;
6292;SDS011;3179;54.350;10.102;2022-08-14T03:15:34;2.03;;;1.60;;
6292;SDS011;3179;54.350;10.102;2022-08-14T03:18:04;2.30;;;1.73;;
6292;SDS011;3179;54.350;10.102;2022-08-14T03:20:35;1.83;;;1.73;;
6292;SDS011;3179;54.350;10.102;2022-08-14T03:23:02;2.30;;;2.00;;
6292;SDS011;3179;54.350;10.102;2022-08-14T03:25:29;3.80;;;1.90;;
6292;SDS011;3179;54.350;10.102;2022-08-14T03:27:57;2.17;;;1.70;;
6292;SDS011;3179;54.350;10.102;2022-08-14T03:30:28;1.77;;;1.67;;
6292;SDS011;3179;54.350;10.102;2022-08-14T03:32:55;2.50;;;1.90;;
6292;SDS011;3179;54.350;10.102;2022-08-14T03:35:24;2.33;;;2.00;;
6292;SDS011;3179;54.350;10.102;2022-08-14T03:37:51;1.90;;;1.80;;
6292;SDS011;3179;54.350;10.102;2022-08-14T03:40:19;1.60;;;1.50;;
6292;SDS011;3179;54.350;10.102;2022-08-14T03:42:46;2.17;;;2.07;;
6292;SDS011;3179;54.350;10.102;2022-08-14T03:45:13;1.90;;;1.70;;
6292;SDS011;3179;54.350;10.102;2022-08-14T03:47:40;4.37;;;1.90;;
6292;SDS011;3179;54.350;10.102;2022-08-14T03:50:08;2.13;;;2.03;;
6292;SDS011;3179;54.350;10.102;2022-08-14T03:52:37;2.00;;;1.90;;
6292;SDS011;3179;54.350;10.102;2022-08-14T03:55:04;1.73;;;1.63;;
6292;SDS011;3179;54.350;10.102;2022-08-14T03:57:33;1.90;;;1.60;;
6292;SDS011;3179;54.350;10.102;2022-08-14T03:59:59;2.50;;;2.30;;
6292;SDS011;3179;54.350;10.102;2022-08-14T04:02:30;2.03;;;1.80;;
6292;SDS011;3179;54.350;10.102;2022-08-14T04:04:57;2.00;;;1.90;;
6292;SDS011;3179;54.350;10.102;2022-08-14T04:07:24;1.50;;;1.23;;
6292;SDS011;3179;54.350;10.102;2022-08-14T04:09:52;2.90;;;1.97;;
6292;SDS011;3179;54.350;10.102;2022-08-14T04:12:19;2.37;;;1.80;;
6292;SDS011;3179;54.350;10.102;2022-08-14T04:14:46;2.20;;;1.80;;
6292;SDS011;3179;54.350;10.102;2022-08-14T04:17:12;1.63;;;1.50;;
6292;SDS011;3179;54.350;10.102;2022-08-14T04:19:39;2.80;;;1.83;;
6292;SDS011;3179;54.350;10.102;2022-08-14T04:22:06;2.10;;;1.87;;
6292;SDS011;3179;54.350;10.102;2022-08-14T04:24:33;3.20;;;2.10;;
6292;SDS011;3179;54.350;10.102;2022-08-14T04:27:03;5.27;;;2.10;;
6292;SDS011;3179;54.350;10.102;2022-08-14T04:29:31;2.50;;;1.67;;
6292;SDS011;3179;54.350;10.102;2022-08-14T04:31:58;2.17;;;1.90;;
6292;SDS011;3179;54.350;10.102;2022-08-14T04:34:24;1.70;;;1.60;;
6292;SDS011;3179;54.350;10.102;2022-08-14T04:36:51;2.97;;;2.33;;
6292;SDS011;3179;54.350;10.102;2022-08-14T04:39:36;3.10;;;1.67;;
6292;SDS011;3179;54.350;10.102;2022-08-14T04:42:21;2.10;;;2.00;;
6292;SDS011;3179;54.350;10.102;2022-08-14T04:45:05;1.73;;;1.60;;
6292;SDS011;3179;54.350;10.102;2022-08-14T04:47:32;1.73;;;1.63;;
6292;SDS011;3179;54.350;10.102;2022-08-14T04:50:17;2.00;;;1.80;;
6292;SDS011;3179;54.350;10.102;2022-08-14T04:52:44;3.53;;;1.80;;
6292;SDS011;3179;54.350;10.102;2022-08-14T04:55:13;4.00;;;2.47;;
6292;SDS011;3179;54.350;10.102;2022-08-14T04:57:41;1.73;;;1.63;;
6292;SDS011;3179;54.350;10.102;2022-08-14T05:00:08;6.43;;;1.53;;
6292;SDS011;3179;54.350;10.102;2022-08-14T05:02:38;2.03;;;1.80;;
6292;SDS011;3179;54.350;10.102;2022-08-14T05:05:05;1.47;;;1.37;;
6292;SDS011;3179;54.350;10.102;2022-08-14T05:07:32;2.00;;;1.50;;
6292;SDS011;3179;54.350;10.102;2022-08-14T05:09:59;3.53;;;1.90;;
6292;SDS011;3179;54.350;10.102;2022-08-14T05:12:26;2.00;;;1.80;;
6292;SDS011;3179;54.350;10.102;2022-08-14T05:14:56;1.53;;;1.40;;
6292;SDS011;3179;54.350;10.102;2022-08-14T05:17:23;1.60;;;1.50;;
6292;SDS011;3179;54.350;10.102;2022-08-14T05:19:50;1.40;;;1.30;;
6292;SDS011;3179;54.350;10.102;2022-08-14T05:22:17;3.27;;;1.30;;
6292;SDS011;3179;54.350;10.102;2022-08-14T05:24:44;1.53;;;1.23;;
6292;SDS011;3179;54.350;10.102;2022-08-14T05:27:13;1.33;;;1.23;;
6292;SDS011;3179;54.350;10.102;2022-08-14T05:29:44;3.07;;;1.50;;
6292;SDS011;3179;54.350;10.102;2022-08-14T05:32:12;1.83;;;1.70;;
6292;SDS011;3179;54.350;10.102;2022-08-14T05:34:39;4.13;;;1.80;;
6292;SDS011;3179;54.350;10.102;2022-08-14T05:37:06;2.60;;;1.77;;
6292;SDS011;3179;54.350;10.102;2022-08-14T05:39:33;2.70;;;1.60;;
6292;SDS011;3179;54.350;10.102;2022-08-14T05:42:00;5.90;;;1.40;;
6292;SDS011;3179;54.350;10.102;2022-08-14T05:44:26;2.63;;;1.10;;
6292;SDS011;3179;54.350;10.102;2022-08-14T05:46:53;4.10;;;1.77;;
6292;SDS011;3179;54.350;10.102;2022-08-14T05:49:21;2.33;;;1.60;;
6292;SDS011;3179;54.350;10.102;2022-08-14T05:51:48;2.40;;;1.30;;
6292;SDS011;3179;54.350;10.102;2022-08-14T05:54:15;4.03;;;1.33;;
6292;SDS011;3179;54.350;10.102;2022-08-14T05:56:42;1.37;;;1.00;;
6292;SDS011;3179;54.350;10.102;2022-08-14T05:59:09;1.20;;;1.10;;
6292;SDS011;3179;54.350;10.102;2022-08-14T06:01:36;1.10;;;1.00;;
6292;SDS011;3179;54.350;10.102;2022-08-14T06:04:03;2.53;;;1.60;;
6292;SDS011;3179;54.350;10.102;2022-08-14T06:06:31;3.13;;;1.43;;
6292;SDS011;3179;54.350;10.102;2022-08-14T06:08:58;2.83;;;1.20;;
6292;SDS011;3179;54.350;10.102;2022-08-14T06:11:25;5.40;;;1.70;;
6292;SDS011;3179;54.350;10.102;2022-08-14T06:13:51;2.23;;;1.53;;
6292;SDS011;3179;54.350;10.102;2022-08-14T06:16:18;2.90;;;1.50;;
6292;SDS011;3179;54.350;10.102;2022-08-14T06:18:46;2.60;;;1.67;;
6292;SDS011;3179;54.350;10.102;2022-08-14T06:21:13;5.20;;;1.50;;
6292;SDS011;3179;54.350;10.102;2022-08-14T06:23:41;3.07;;;1.50;;
6292;SDS011;3179;54.350;10.102;2022-08-14T06:26:09;1.40;;;1.03;;
6292;SDS011;3179;54.350;10.102;2022-08-14T06:28:35;2.37;;;1.70;;
6292;SDS011;3179;54.350;10.102;2022-08-14T06:31:03;1.87;;;1.30;;
6292;SDS011;3179;54.350;10.102;2022-08-14T06:33:30;1.73;;;1.20;;
6292;SDS011;3179;54.350;10.102;2022-08-14T06:35:57;2.60;;;1.50;;
6292;SDS011;3179;54.350;10.102;2022-08-14T06:38:23;3.37;;;1.77;;
6292;SDS011;3179;54.350;10.102;2022-08-14T06:40:52;8.43;;;1.80;;
6292;SDS011;3179;54.350;10.102;2022-08-14T06:43:19;2.77;;;1.23;;
6292;SDS011;3179;54.350;10.102;2022-08-14T06:45:46;2.50;;;1.20;;
6292;SDS011;3179;54.350;10.102;2022-08-14T06:48:14;2.77;;;1.50;;
6292;SDS011;3179;54.350;10.102;2022-08-14T06:50:42;2.03;;;1.30;;
6292;SDS011;3179;54.350;10.102;2022-08-14T06:53:09;2.73;;;1.60;;
6292;SDS011;3179;54.350;10.102;2022-08-14T06:55:38;2.93;;;1.80;;
6292;SDS011;3179;54.350;10.102;2022-08-14T06:58:09;4.27;;;2.80;;
6292;SDS011;3179;54.350;10.102;2022-08-14T07:00:37;3.40;;;3.10;;
6292;SDS011;3179;54.350;10.102;2022-08-14T07:03:03;5.70;;;2.70;;
6292;SDS011;3179;54.350;10.102;2022-08-14T07:05:48;3.10;;;2.20;;
6292;SDS011;3179;54.350;10.102;2022-08-14T07:08:15;3.73;;;2.27;;
6292;SDS011;3179;54.350;10.102;2022-08-14T07:10:43;3.73;;;1.90;;
6292;SDS011;3179;54.350;10.102;2022-08-14T07:13:12;2.63;;;1.57;;
6292;SDS011;3179;54.350;10.102;2022-08-14T07:15:39;2.73;;;1.23;;
6292;SDS011;3179;54.350;10.102;2022-08-14T07:18:07;3.87;;;1.60;;
6292;SDS011;3179;54.350;10.102;2022-08-14T07:20:34;2.10;;;1.57;;
6292;SDS011;3179;54.350;10.102;2022-08-14T07:23:02;2.30;;;1.80;;
6292;SDS011;3179;54.350;10.102;2022-08-14T07:25:30;3.97;;;1.83;;
6292;SDS011;3179;54.350;10.102;2022-08-14T07:27:57;8.03;;;1.87;;
6292;SDS011;3179;54.350;10.102;2022-08-14T07:30:25;3.67;;;2.00;;
6292;SDS011;3179;54.350;10.102;2022-08-14T07:32:52;2.40;;;1.37;;
6292;SDS011;3179;54.350;10.102;2022-08-14T07:35:19;2.13;;;1.57;;
6292;SDS011;3179;54.350;10.102;2022-08-14T07:37:46;3.13;;;1.60;;
6292;SDS011;3179;54.350;10.102;2022-08-14T07:40:14;7.37;;;1.60;;
6292;SDS011;3179;54.350;10.102;2022-08-14T07:42:41;3.83;;;1.57;;
6292;SDS011;3179;54.350;10.102;2022-08-14T07:45:09;2.10;;;1.70;;
6292;SDS011;3179;54.350;10.102;2022-08-14T07:47:41;2.10;;;1.50;;
6292;SDS011;3179;54.350;10.102;2022-08-14T07:50:11;1.60;;;1.47;;
6292;SDS011;3179;54.350;10.102;2022-08-14T07:52:40;4.70;;;1.97;;
6292;SDS011;3179;54.350;10.102;2022-08-14T07:55:07;3.80;;;1.70;;
6292;SDS011;3179;54.350;10.102;2022-08-14T07:57:34;1.60;;;1.50;;
6292;SDS011;3179;54.350;10.102;2022-08-14T08:00:03;2.17;;;1.20;;
6292;SDS011;3179;54.350;10.102;2022-08-14T08:02:35;1.53;;;1.40;;
6292;SDS011;3179;54.350;10.102;2022-08-14T08:05:06;10.30;;;1.63;;
6292;SDS011;3179;54.350;10.102;2022-08-14T08:07:34;5.20;;;1.73;;
6292;SDS011;3179;54.350;10.102;2022-08-14T08:10:04;1.77;;;1.57;;
6292;SDS011;3179;54.350;10.102;2022-08-14T08:12:53;3.20;;;1.70;;
6292;SDS011;3179;54.350;10.102;2022-08-14T08:15:21;4.63;;;2.03;;
6292;SDS011;3179;54.350;10.102;2022-08-14T08:17:48;4.30;;;1.97;;
6292;SDS011;3179;54.350;10.102;2022-08-14T08:20:18;4.37;;;1.83;;
6292;SDS011;3179;54.350;10.102;2022-08-14T08:22:47;5.13;;;2.13;;
6292;SDS011;3179;54.350;10.102;2022-08-14T08:25:15;1.53;;;1.43;;
6292;SDS011;3179;54.350;10.102;2022-08-14T08:27:52;2.63;;;1.60;;
6292;SDS011;3179;54.350;10.102;2022-08-14T08:30:20;1.93;;;1.70;;
6292;SDS011;3179;54.350;10.102;2022-08-14T08:32:46;3.80;;;1.73;;
6292;SDS011;3179;54.350;10.102;2022-08-14T08:35:18;2.47;;;1.70;;
6292;SDS011;3179;54.350;10.102;2022-08-14T08:37:46;3.40;;;2.20;;
6292;SDS011;3179;54.350;10.102;2022-08-14T08:40:23;3.57;;;1.77;;
6292;SDS011;3179;54.350;10.102;2022-08-14T08:42:51;3.63;;;2.07;;
6292;SDS011;3179;54.350;10.102;2022-08-14T08:45:18;3.33;;;2.00;;
6292;SDS011;3179;54.350;10.102;2022-08-14T08:47:46;3.10;;;1.97;;
6292;SDS011;3179;54.350;10.102;2022-08-14T08:50:15;3.10;;;2.30;;
6292;SDS011;3179;54.350;10.102;2022-08-14T08:52:48;2.83;;;1.90;;
6292;SDS011;3179;54.350;10.102;2022-08-14T08:55:22;2.60;;;1.50;;
6292;SDS011;3179;54.350;10.102;2022-08-14T08:57:54;3.23;;;1.67;;
6292;SDS011;3179;54.350;10.102;2022-08-14T09:00:22;2.77;;;1.70;;
6292;SDS011;3179;54.350;10.102;2022-08-14T09:02:53;3.60;;;1.83;;
6292;SDS011;3179;54.350;10.102;2022-08-14T09:05:23;6.33;;;2.00;;
6292;SDS011;3179;54.350;10.102;2022-08-14T09:07:51;4.07;;;2.13;;
6292;SDS011;3179;54.350;10.102;2022-08-14T09:10:17;2.43;;;1.70;;
6292;SDS011;3179;54.350;10.102;2022-08-14T09:12:45;5.90;;;1.77;;
6292;SDS011;3179;54.350;10.102;2022-08-14T09:15:12;2.07;;;1.70;;
6292;SDS011;3179;54.350;10.102;2022-08-14T09:17:40;7.87;;;1.97;;
6292;SDS011;3179;54.350;10.102;2022-08-14T09:20:08;3.70;;;2.10;;
6292;SDS011;3179;54.350;10.102;2022-08-14T09:22:39;3.90;;;2.20;;
6292;SDS011;3179;54.350;10.102;2022-08-14T09:25:11;6.03;;;2.80;;
6292;SDS011;3179;54.350;10.102;2022-08-14T09:27:38;3.07;;;2.00;;
6292;SDS011;3179;54.350;10.102;2022-08-14T09:30:05;5.30;;;2.30;;
6292;SDS011;3179;54.350;10.102;2022-08-14T09:32:36;2.87;;;2.50;;
6292;SDS011;3179;54.350;10.102;2022-08-14T09:35:11;9.03;;;2.60;;
6292;SDS011;3179;54.350;10.102;2022-08-14T09:37:46;2.70;;;2.40;;
6292;SDS011;3179;54.350;10.102;2022-08-14T09:40:23;2.53;;;2.33;;
6292;SDS011;3179;54.350;10.102;2022-08-14T09:43:03;7.50;;;2.50;;
6292;SDS011;3179;54.350;10.102;2022-08-14T09:45:38;2.13;;;2.03;;
6292;SDS011;3179;54.350;10.102;2022-08-14T09:48:14;4.30;;;2.40;;
6292;SDS011;3179;54.350;10.102;2022-08-14T09:50:43;5.33;;;2.87;;
6292;SDS011;3179;54.350;10.102;2022-08-14T09:53:15;10.77;;;2.63;;
6292;SDS011;3179;54.350;10.102;2022-08-14T09:55:59;10.93;;;2.90;;
6292;SDS011;3179;54.350;10.102;2022-08-14T09:58:34;7.27;;;2.60;;
6292;SDS011;3179;54.350;10.102;2022-08-14T10:01:07;3.13;;;2.70;;
6292;SDS011;3179;54.350;10.102;2022-08-14T10:03:37;3.17;;;2.70;;
6292;SDS011;3179;54.350;10.102;2022-08-14T10:06:14;2.93;;;2.63;;
6292;SDS011;3179;54.350;10.102;2022-08-14T10:08:45;5.67;;;2.93;;
6292;SDS011;3179;54.350;10.102;2022-08-14T10:11:15;5.37;;;2.87;;
6292;SDS011;3179;54.350;10.102;2022-08-14T10:13:44;5.63;;;3.00;;
6292;SDS011;3179;54.350;10.102;2022-08-14T10:16:13;3.27;;;2.40;;
6292;SDS011;3179;54.350;10.102;2022-08-14T10:18:40;6.10;;;3.07;;
6292;SDS011;3179;54.350;10.102;2022-08-14T10:21:08;3.47;;;3.17;;
6292;SDS011;3179;54.350;10.102;2022-08-14T10:23:42;3.30;;;3.00;;
6292;SDS011;3179;54.350;10.102;2022-08-14T10:26:14;6.77;;;3.17;;
6292;SDS011;3179;54.350;10.102;2022-08-14T10:28:43;3.30;;;2.80;;
6292;SDS011;3179;54.350;10.102;2022-08-14T10:31:18;5.13;;;3.17;;
6292;SDS011;3179;54.350;10.102;2022-08-14T10:33:57;5.23;;;2.80;;
6292;SDS011;3179;54.350;10.102;2022-08-14T10:36:25;3.20;;;2.90;;
6292;SDS011;3179;54.350;10.102;2022-08-14T10:38:58;6.87;;;2.67;;
6292;SDS011;3179;54.350;10.102;2022-08-14T10:41:33;5.50;;;3.40;;
6292;SDS011;3179;54.350;10.102;2022-08-14T10:44:05;4.37;;;3.03;;
6292;SDS011;3179;54.350;10.102;2022-08-14T10:46:38;5.20;;;3.13;;
6292;SDS011;3179;54.350;10.102;2022-08-14T10:49:14;3.73;;;3.40;;
6292;SDS011;3179;54.350;10.102;2022-08-14T10:51:53;4.13;;;2.90;;
6292;SDS011;3179;54.350;10.102;2022-08-14T10:54:32;6.33;;;3.10;;
6292;SDS011;3179;54.350;10.102;2022-08-14T10:57:14;3.67;;;3.07;;
6292;SDS011;3179;54.350;10.102;2022-08-14T10:59:44;4.47;;;3.00;;
6292;SDS011;3179;54.350;10.102;2022-08-14T11:02:17;4.90;;;3.13;;
6292;SDS011;3179;54.350;10.102;2022-08-14T11:04:56;3.37;;;3.17;;
6292;SDS011;3179;54.350;10.102;2022-08-14T11:07:27;3.30;;;2.73;;
6292;SDS011;3179;54.350;10.102;2022-08-14T11:09:57;2.67;;;2.47;;
6292;SDS011;3179;54.350;10.102;2022-08-14T11:12:26;3.43;;;3.10;;
6292;SDS011;3179;54.350;10.102;2022-08-14T11:15:04;3.93;;;2.93;;
6292;SDS011;3179;54.350;10.102;2022-08-14T11:17:32;3.43;;;2.83;;
6292;SDS011;3179;54.350;10.102;2022-08-14T11:20:01;5.00;;;2.93;;
6292;SDS011;3179;54.350;10.102;2022-08-14T11:22:30;3.17;;;2.77;;
6292;SDS011;3179;54.350;10.102;2022-08-14T11:25:00;2.87;;;2.67;;
6292;SDS011;3179;54.350;10.102;2022-08-14T11:27:29;4.07;;;2.70;;
6292;SDS011;3179;54.350;10.102;2022-08-14T11:29:57;7.40;;;3.10;;
6292;SDS011;3179;54.350;10.102;2022-08-14T11:32:27;3.30;;;3.00;;
6292;SDS011;3179;54.350;10.102;2022-08-14T11:34:55;6.60;;;2.97;;
6292;SDS011;3179;54.350;10.102;2022-08-14T11:37:22;3.67;;;2.73;;
6292;SDS011;3179;54.350;10.102;2022-08-14T11:39:49;3.07;;;2.23;;
6292;SDS011;3179;54.350;10.102;2022-08-14T11:42:20;6.13;;;2.60;;
6292;SDS011;3179;54.350;10.102;2022-08-14T11:44:48;4.30;;;2.93;;
6292;SDS011;3179;54.350;10.102;2022-08-14T11:47:17;2.67;;;2.47;;
6292;SDS011;3179;54.350;10.102;2022-08-14T11:49:44;3.90;;;2.67;;
6292;SDS011;3179;54.350;10.102;2022-08-14T11:52:12;3.00;;;2.50;;
6292;SDS011;3179;54.350;10.102;2022-08-14T11:54:39;4.47;;;2.63;;
6292;SDS011;3179;54.350;10.102;2022-08-14T11:57:12;2.80;;;2.60;;
6292;SDS011;3179;54.350;10.102;2022-08-14T11:59:41;5.23;;;2.57;;
6292;SDS011;3179;54.350;10.102;2022-08-14T12:02:09;2.23;;;1.87;;
6292;SDS011;3179;54.350;10.102;2022-08-14T12:04:46;2.50;;;2.30;;
6292;SDS011;3179;54.350;10.102;2022-08-14T12:07:14;3.67;;;2.40;;
6292;SDS011;3179;54.350;10.102;2022-08-14T12:09:41;6.00;;;2.60;;
6292;SDS011;3179;54.350;10.102;2022-08-14T12:12:13;4.17;;;2.20;;
6292;SDS011;3179;54.350;10.102;2022-08-14T12:14:48;4.60;;;2.50;;
6292;SDS011;3179;54.350;10.102;2022-08-14T12:17:17;5.60;;;2.53;;
6292;SDS011;3179;54.350;10.102;2022-08-14T12:19:48;6.50;;;2.40;;
6292;SDS011;3179;54.350;10.102;2022-08-14T12:22:18;3.43;;;3.00;;
6292;SDS011;3179;54.350;10.102;2022-08-14T12:24:48;7.80;;;2.77;;
6292;SDS011;3179;54.350;10.102;2022-08-14T12:27:15;4.97;;;2.30;;
6292;SDS011;3179;54.350;10.102;2022-08-14T12:29:52;2.93;;;2.30;;
6292;SDS011;3179;54.350;10.102;2022-08-14T12:32:19;4.93;;;2.20;;
6292;SDS011;3179;54.350;10.102;2022-08-14T12:34:51;6.53;;;2.27;;
6292;SDS011;3179;54.350;10.102;2022-08-14T12:37:19;2.37;;;2.20;;
6292;SDS011;3179;54.350;10.102;2022-08-14T12:40:07;4.37;;;2.07;;
6292;SDS011;3179;54.350;10.102;2022-08-14T12:42:35;2.77;;;2.13;;
6292;SDS011;3179;54.350;10.102;2022-08-14T12:45:03;3.50;;;2.07;;
6292;SDS011;3179;54.350;10.102;2022-08-14T12:47:31;4.07;;;2.30;;
6292;SDS011;3179;54.350;10.102;2022-08-14T12:49:59;5.90;;;2.10;;
6292;SDS011;3179;54.350;10.102;2022-08-14T12:52:26;6.37;;;2.40;;
6292;SDS011;3179;54.350;10.102;2022-08-14T12:54:56;4.60;;;2.23;;
6292;SDS011;3179;54.350;10.102;2022-08-14T12:57:31;4.37;;;2.30;;
6292;SDS011;3179;54.350;10.102;2022-08-14T13:00:08;2.30;;;1.80;;
6292;SDS011;3179;54.350;10.102;2022-08-14T13:02:38;2.80;;;1.90;;
6292;SDS011;3179;54.350;10.102;2022-08-14T13:05:06;4.27;;;2.60;;
6292;SDS011;3179;54.350;10.102;2022-08-14T13:07:35;3.77;;;2.20;;
6292;SDS011;3179;54.350;10.102;2022-08-14T13:10:04;5.70;;;2.93;;
6292;SDS011;3179;54.350;10.102;2022-08-14T13:12:32;4.80;;;2.87;;
6292;SDS011;3179;54.350;10.102;2022-08-14T13:15:05;2.47;;;2.27;;
6292;SDS011;3179;54.350;10.102;2022-08-14T13:17:37;3.47;;;2.40;;
6292;SDS011;3179;54.350;10.102;2022-08-14T13:20:07;4.90;;;2.60;;
6292;SDS011;3179;54.350;10.102;2022-08-14T13:22:35;3.30;;;2.50;;
6292;SDS011;3179;54.350;10.102;2022-08-14T13:25:03;3.03;;;2.30;;
6292;SDS011;3179;54.350;10.102;2022-08-14T13:27:31;3.53;;;2.17;;
6292;SDS011;3179;54.350;10.102;2022-08-14T13:30:00;2.93;;;2.00;;
6292;SDS011;3179;54.350;10.102;2022-08-14T13:32:32;3.33;;;2.53;;
6292;SDS011;3179;54.350;10.102;2022-08-14T13:35:03;2.33;;;2.13;;
6292;SDS011;3179;54.350;10.102;2022-08-14T13:37:31;2.43;;;2.23;;
6292;SDS011;3179;54.350;10.102;2022-08-14T13:39:58;2.50;;;2.30;;
6292;SDS011;3179;54.350;10.102;2022-08-14T13:42:25;3.80;;;3.07;;
6292;SDS011;3179;54.350;10.102;2022-08-14T13:44:53;2.00;;;1.80;;
6292;SDS011;3179;54.350;10.102;2022-08-14T13:47:22;4.50;;;2.07;;
6292;SDS011;3179;54.350;10.102;2022-08-14T13:49:55;2.20;;;2.00;;
6292;SDS011;3179;54.350;10.102;2022-08-14T13:52:26;4.07;;;2.17;;
6292;SDS011;3179;54.350;10.102;2022-08-14T13:54:58;3.20;;;2.20;;
6292;SDS011;3179;54.350;10.102;2022-08-14T13:57:29;4.20;;;2.20;;
6292;SDS011;3179;54.350;10.102;2022-08-14T13:59:57;2.50;;;2.30;;
6292;SDS011;3179;54.350;10.102;2022-08-14T14:02:29;4.30;;;2.23;;
6292;SDS011;3179;54.350;10.102;2022-08-14T14:04:58;2.47;;;2.30;;
6292;SDS011;3179;54.350;10.102;2022-08-14T14:07:28;4.03;;;2.50;;
6292;SDS011;3179;54.350;10.102;2022-08-14T14:09:58;2.57;;;2.20;;
6292;SDS011;3179;54.350;10.102;2022-08-14T14:12:27;4.57;;;2.60;;
6292;SDS011;3179;54.350;10.102;2022-08-14T14:14:54;2.83;;;2.10;;
6292;SDS011;3179;54.350;10.102;2022-08-14T14:17:21;3.80;;;1.83;;
6292;SDS011;3179;54.350;10.102;2022-08-14T14:19:49;4.37;;;2.33;;
6292;SDS011;3179;54.350;10.102;2022-08-14T14:22:18;5.03;;;1.80;;
6292;SDS011;3179;54.350;10.102;2022-08-14T14:24:45;3.53;;;1.70;;
6292;SDS011;3179;54.350;10.102;2022-08-14T14:27:12;2.50;;;1.97;;
6292;SDS011;3179;54.350;10.102;2022-08-14T14:29:41;10.20;;;2.73;;
6292;SDS011;3179;54.350;10.102;2022-08-14T14:32:10;6.57;;;2.60;;
6292;SDS011;3179;54.350;10.102;2022-08-14T14:34:38;4.07;;;1.70;;
6292;SDS011;3179;54.350;10.102;2022-08-14T14:37:06;3.70;;;2.13;;
6292;SDS011;3179;54.350;10.102;2022-08-14T14:39:38;3.47;;;1.70;;
6292;SDS011;3179;54.350;10.102;2022-08-14T14:42:06;5.33;;;2.00;;
6292;SDS011;3179;54.350;10.102;2022-08-14T14:44:34;8.07;;;2.03;;
6292;SDS011;3179;54.350;10.102;2022-08-14T14:47:06;3.73;;;2.50;;
6292;SDS011;3179;54.350;10.102;2022-08-14T14:49:34;3.13;;;1.97;;
6292;SDS011;3179;54.350;10.102;2022-08-14T14:52:03;1.97;;;1.77;;
6292;SDS011;3179;54.350;10.102;2022-08-14T14:54:31;3.03;;;2.00;;
6292;SDS011;3179;54.350;10.102;2022-08-14T14:57:00;4.43;;;1.93;;
6292;SDS011;3179;54.350;10.102;2022-08-14T14:59:28;3.80;;;1.93;;
6292;SDS011;3179;54.350;10.102;2022-08-14T15:01:58;4.60;;;2.13;;
6292;SDS011;3179;54.350;10.102;2022-08-14T15:04:25;1.90;;;1.73;;
6292;SDS011;3179;54.350;10.102;2022-08-14T15:06:52;2.43;;;1.90;;
6292;SDS011;3179;54.350;10.102;2022-08-14T15:09:19;2.17;;;1.80;;
6292;SDS011;3179;54.350;10.102;2022-08-14T15:11:46;4.03;;;2.00;;
6292;SDS011;3179;54.350;10.102;2022-08-14T15:14:15;5.30;;;1.77;;